sensor_id;sensor_type;location;lat;lon;timestamp;pressure;altitude;pressure_sealevel;temperature;humidity
21236;BME280;10775;42.678;26.324;2023-02-28T00:01:33;99337.69;;;10.98;100.00
21236;BME280;10775;42.678;26.324;2023-02-28T00:03:59;99341.09;;;11.06;100.00
21236;BME280;10775;42.678;26.324;2023-02-28T00:06:24;99347.66;;;10.62;100.00
21236;BME280;10775;42.678;26.324;2023-02-28T00:08:50;99344.47;;;10.28;100.00
21236;BME280;10775;42.678;26.324;2023-02-28T00:11:16;99339.44;;;10.00;100.00
21236;BME280;10775;42.678;26.324;2023-02-28T00:13:45;99340.16;;;10.17;100.00
21236;BME280;10775;42.678;26.324;2023-02-28T00:16:16;99327.88;;;10.33;100.00
21236;BME280;10775;42.678;26.324;2023-02-28T00:18:42;99332.03;;;10.53;100.00
21236;BME280;10775;42.678;26.324;2023-02-28T00:21:08;99333.69;;;10.63;100.00
21236;BME280;10775;42.678;26.324;2023-02-28T00:23:34;99330.19;;;10.65;100.00
21236;BME280;10775;42.678;26.324;2023-02-28T00:26:00;99334.53;;;10.66;100.00
21236;BME280;10775;42.678;26.324;2023-02-28T00:28:26;99326.75;;;10.60;100.00
21236;BME280;10775;42.678;26.324;2023-02-28T00:30:51;99327.47;;;10.76;100.00
21236;BME280;10775;42.678;26.324;2023-02-28T00:33:16;99318.75;;;10.76;100.00
21236;BME280;10775;42.678;26.324;2023-02-28T00:35:43;99319.47;;;10.88;100.00
21236;BME280;10775;42.678;26.324;2023-02-28T00:38:11;99317.81;;;10.83;100.00
21236;BME280;10775;42.678;26.324;2023-02-28T00:40:37;99312.56;;;10.83;100.00
21236;BME280;10775;42.678;26.324;2023-02-28T00:43:02;99308.19;;;10.83;100.00
21236;BME280;10775;42.678;26.324;2023-02-28T00:45:29;99312.53;;;10.89;100.00
21236;BME280;10775;42.678;26.324;2023-02-28T00:47:54;99323.84;;;10.90;100.00
21236;BME280;10775;42.678;26.324;2023-02-28T00:50:20;99326.47;;;10.90;100.00
21236;BME280;10775;42.678;26.324;2023-02-28T00:52:46;99336.03;;;10.92;100.00
21236;BME280;10775;42.678;26.324;2023-02-28T00:55:11;99346.50;;;10.92;100.00
21236;BME280;10775;42.678;26.324;2023-02-28T00:57:37;99336.16;;;10.78;100.00
21236;BME280;10775;42.678;26.324;2023-02-28T01:00:03;99334.56;;;10.65;100.00
21236;BME280;10775;42.678;26.324;2023-02-28T01:02:29;99343.41;;;10.50;100.00
21236;BME280;10775;42.678;26.324;2023-02-28T01:04:55;99346.06;;;10.45;100.00
21236;BME280;10775;42.678;26.324;2023-02-28T01:07:22;99345.09;;;10.59;100.00
21236;BME280;10775;42.678;26.324;2023-02-28T01:09:48;99351.06;;;10.70;100.00
21236;BME280;10775;42.678;26.324;2023-02-28T01:12:13;99352.75;;;10.77;100.00
21236;BME280;10775;42.678;26.324;2023-02-28T01:14:38;99358.94;;;10.65;100.00
21236;BME280;10775;42.678;26.324;2023-02-28T01:17:04;99353.16;;;10.25;100.00
21236;BME280;10775;42.678;26.324;2023-02-28T01:19:29;99348.72;;;10.39;100.00
21236;BME280;10775;42.678;26.324;2023-02-28T01:21:55;99353.84;;;10.50;100.00
21236;BME280;10775;42.678;26.324;2023-02-28T01:24:20;99364.31;;;10.52;100.00
21236;BME280;10775;42.678;26.324;2023-02-28T01:26:46;99364.28;;;10.55;100.00
21236;BME280;10775;42.678;26.324;2023-02-28T01:29:11;99357.34;;;10.54;100.00
21236;BME280;10775;42.678;26.324;2023-02-28T01:31:37;99358.16;;;10.57;100.00
21236;BME280;10775;42.678;26.324;2023-02-28T01:34:02;99363.41;;;10.56;100.00
21236;BME280;10775;42.678;26.324;2023-02-28T01:36:29;99372.28;;;10.36;100.00
21236;BME280;10775;42.678;26.324;2023-02-28T01:38:54;99367.88;;;10.41;100.00
21236;BME280;10775;42.678;26.324;2023-02-28T01:41:27;99371.47;;;10.23;100.00
21236;BME280;10775;42.678;26.324;2023-02-28T01:43:57;99379.25;;;10.39;100.00
21236;BME280;10775;42.678;26.324;2023-02-28T01:46:22;99388.81;;;10.41;100.00
21236;BME280;10775;42.678;26.324;2023-02-28T01:48:53;99392.22;;;10.50;100.00
21236;BME280;10775;42.678;26.324;2023-02-28T01:54:08;99398.41;;;10.38;100.00
21236;BME280;10775;42.678;26.324;2023-02-28T01:56:43;99397.59;;;10.31;100.00
21236;BME280;10775;42.678;26.324;2023-02-28T01:59:11;99401.88;;;10.40;100.00
21236;BME280;10775;42.678;26.324;2023-02-28T02:01:37;99398.44;;;10.32;100.00
21236;BME280;10775;42.678;26.324;2023-02-28T02:04:03;99390.59;;;10.27;100.00
21236;BME280;10775;42.678;26.324;2023-02-28T02:06:34;99393.34;;;10.09;100.00
21236;BME280;10775;42.678;26.324;2023-02-28T02:09:02;99398.66;;;9.98;100.00
21236;BME280;10775;42.678;26.324;2023-02-28T02:11:28;99402.03;;;10.15;100.00
21236;BME280;10775;42.678;26.324;2023-02-28T02:39:06;99409.00;;;10.12;100.00
21236;BME280;10775;42.678;26.324;2023-02-28T02:41:49;99410.78;;;10.08;100.00
21236;BME280;10775;42.678;26.324;2023-02-28T02:44:27;99410.78;;;10.07;100.00
21236;BME280;10775;42.678;26.324;2023-02-28T02:47:02;99402.94;;;10.07;100.00
21236;BME280;10775;42.678;26.324;2023-02-28T02:49:31;99396.13;;;9.87;100.00
21236;BME280;10775;42.678;26.324;2023-02-28T02:52:03;99410.00;;;9.95;100.00
21236;BME280;10775;42.678;26.324;2023-02-28T02:54:33;99429.94;;;10.07;100.00
21236;BME280;10775;42.678;26.324;2023-02-28T02:57:04;99422.16;;;9.99;100.00
21236;BME280;10775;42.678;26.324;2023-02-28T02:59:32;99420.44;;;9.95;100.00
21236;BME280;10775;42.678;26.324;2023-02-28T03:02:02;99416.06;;;9.94;100.00
21236;BME280;10775;42.678;26.324;2023-02-28T03:04:34;99420.47;;;9.92;100.00
21236;BME280;10775;42.678;26.324;2023-02-28T03:07:02;99420.41;;;10.01;100.00
21236;BME280;10775;42.678;26.324;2023-02-28T03:09:28;99427.31;;;10.09;100.00
21236;BME280;10775;42.678;26.324;2023-02-28T03:11:55;99429.88;;;10.21;100.00
21236;BME280;10775;42.678;26.324;2023-02-28T03:14:40;99432.56;;;10.09;100.00
21236;BME280;10775;42.678;26.324;2023-02-28T03:17:29;99435.22;;;10.01;100.00
21236;BME280;10775;42.678;26.324;2023-02-28T03:23:10;99454.44;;;9.86;100.00
21236;BME280;10775;42.678;26.324;2023-02-28T03:30:49;99449.31;;;9.68;100.00
21236;BME280;10775;42.678;26.324;2023-02-28T03:33:23;99443.16;;;9.78;100.00
21236;BME280;10775;42.678;26.324;2023-02-28T03:36:01;99444.88;;;9.85;100.00
21236;BME280;10775;42.678;26.324;2023-02-28T03:38:29;99446.59;;;9.86;100.00
21236;BME280;10775;42.678;26.324;2023-02-28T03:43:35;99444.88;;;9.79;100.00
21236;BME280;10775;42.678;26.324;2023-02-28T03:46:09;99448.38;;;9.81;100.00
21236;BME280;10775;42.678;26.324;2023-02-28T03:49:11;99451.78;;;9.98;100.00
21236;BME280;10775;42.678;26.324;2023-02-28T03:51:33;99448.44;;;9.63;100.00
21236;BME280;10775;42.678;26.324;2023-02-28T03:54:05;99456.34;;;9.52;100.00
21236;BME280;10775;42.678;26.324;2023-02-28T03:56:39;99451.13;;;9.43;100.00
21236;BME280;10775;42.678;26.324;2023-02-28T03:59:10;99447.59;;;9.56;100.00
21236;BME280;10775;42.678;26.324;2023-02-28T04:01:41;99451.94;;;9.62;100.00
21236;BME280;10775;42.678;26.324;2023-02-28T04:04:08;99461.47;;;9.75;100.00
21236;BME280;10775;42.678;26.324;2023-02-28T04:06:35;99470.31;;;9.22;100.00
21236;BME280;10775;42.678;26.324;2023-02-28T04:09:03;99474.72;;;8.60;100.00
21236;BME280;10775;42.678;26.324;2023-02-28T04:11:41;99481.66;;;8.64;100.00
21236;BME280;10775;42.678;26.324;2023-02-28T04:14:08;99471.19;;;8.36;100.00
21236;BME280;10775;42.678;26.324;2023-02-28T04:16:37;99476.44;;;8.39;100.00
21236;BME280;10775;42.678;26.324;2023-02-28T04:19:04;99464.25;;;8.34;100.00
21236;BME280;10775;42.678;26.324;2023-02-28T04:21:32;99467.75;;;8.89;100.00
21236;BME280;10775;42.678;26.324;2023-02-28T04:23:58;99475.56;;;8.94;100.00
21236;BME280;10775;42.678;26.324;2023-02-28T04:26:30;99472.09;;;9.01;100.00
21236;BME280;10775;42.678;26.324;2023-02-28T04:28:56;99486.81;;;9.25;100.00
21236;BME280;10775;42.678;26.324;2023-02-28T04:31:21;99489.44;;;9.33;100.00
21236;BME280;10775;42.678;26.324;2023-02-28T04:33:46;99485.97;;;9.39;100.00
21236;BME280;10775;42.678;26.324;2023-02-28T04:36:12;99490.28;;;9.49;100.00
21236;BME280;10775;42.678;26.324;2023-02-28T04:38:39;99492.88;;;9.38;100.00
21236;BME280;10775;42.678;26.324;2023-02-28T04:41:05;99494.69;;;9.24;100.00
21236;BME280;10775;42.678;26.324;2023-02-28T04:43:30;99494.66;;;9.36;100.00
21236;BME280;10775;42.678;26.324;2023-02-28T04:45:57;99499.84;;;9.47;100.00
21236;BME280;10775;42.678;26.324;2023-02-28T04:48:24;99502.41;;;9.62;100.00
21236;BME280;10775;42.678;26.324;2023-02-28T04:50:51;99491.16;;;9.32;100.00
21236;BME280;10775;42.678;26.324;2023-02-28T04:53:17;99495.53;;;9.23;100.00
21236;BME280;10775;42.678;26.324;2023-02-28T04:55:43;99485.13;;;9.17;100.00
21236;BME280;10775;42.678;26.324;2023-02-28T04:58:09;99490.34;;;9.26;100.00
21236;BME280;10775;42.678;26.324;2023-02-28T05:00:34;99486.81;;;9.42;100.00
21236;BME280;10775;42.678;26.324;2023-02-28T05:03:00;99491.16;;;9.49;100.00
21236;BME280;10775;42.678;26.324;2023-02-28T05:05:25;99493.72;;;9.51;100.00
21236;BME280;10775;42.678;26.324;2023-02-28T05:07:51;99506.78;;;9.57;100.00
21236;BME280;10775;42.678;26.324;2023-02-28T05:10:16;99513.75;;;9.56;100.00
21236;BME280;10775;42.678;26.324;2023-02-28T05:12:42;99519.84;;;9.52;100.00
21236;BME280;10775;42.678;26.324;2023-02-28T05:15:12;99511.16;;;9.52;100.00
21236;BME280;10775;42.678;26.324;2023-02-28T05:17:38;99516.38;;;9.47;100.00
21236;BME280;10775;42.678;26.324;2023-02-28T05:20:05;99526.81;;;9.49;100.00
21236;BME280;10775;42.678;26.324;2023-02-28T05:22:31;99525.06;;;9.52;100.00
21236;BME280;10775;42.678;26.324;2023-02-28T05:24:57;99530.31;;;9.46;100.00
21236;BME280;10775;42.678;26.324;2023-02-28T05:27:22;99523.38;;;9.36;100.00
21236;BME280;10775;42.678;26.324;2023-02-28T05:29:48;99542.47;;;9.38;100.00
21236;BME280;10775;42.678;26.324;2023-02-28T05:32:15;99533.78;;;9.45;100.00
21236;BME280;10775;42.678;26.324;2023-02-28T05:34:41;99536.38;;;9.53;100.00
21236;BME280;10775;42.678;26.324;2023-02-28T05:37:11;99547.69;;;9.55;100.00
21236;BME280;10775;42.678;26.324;2023-02-28T05:39:37;99549.41;;;9.62;100.00
21236;BME280;10775;42.678;26.324;2023-02-28T05:42:04;99566.81;;;9.62;100.00
21236;BME280;10775;42.678;26.324;2023-02-28T05:44:29;99565.94;;;9.64;100.00
21236;BME280;10775;42.678;26.324;2023-02-28T05:46:55;99559.00;;;9.55;100.00
21236;BME280;10775;42.678;26.324;2023-02-28T05:49:20;99567.69;;;9.53;100.00
21236;BME280;10775;42.678;26.324;2023-02-28T05:51:46;99572.06;;;9.52;100.00
21236;BME280;10775;42.678;26.324;2023-02-28T05:54:11;99577.25;;;9.51;100.00
21236;BME280;10775;42.678;26.324;2023-02-28T05:56:36;99576.41;;;9.55;100.00
21236;BME280;10775;42.678;26.324;2023-02-28T05:59:06;99581.63;;;9.43;100.00
21236;BME280;10775;42.678;26.324;2023-02-28T06:01:35;99583.38;;;9.45;100.00
21236;BME280;10775;42.678;26.324;2023-02-28T06:04:03;99579.06;;;9.13;100.00
21236;BME280;10775;42.678;26.324;2023-02-28T06:06:29;99572.97;;;9.16;100.00
21236;BME280;10775;42.678;26.324;2023-02-28T06:08:55;99578.16;;;9.45;100.00
21236;BME280;10775;42.678;26.324;2023-02-28T06:11:21;99581.63;;;9.47;100.00
21236;BME280;10775;42.678;26.324;2023-02-28T06:13:47;99572.94;;;9.54;100.00
21236;BME280;10775;42.678;26.324;2023-02-28T06:16:12;99572.91;;;9.70;100.00
21236;BME280;10775;42.678;26.324;2023-02-28T06:18:38;99579.00;;;9.61;100.00
21236;BME280;10775;42.678;26.324;2023-02-28T06:21:04;99572.91;;;9.64;100.00
21236;BME280;10775;42.678;26.324;2023-02-28T06:23:30;99568.50;;;9.83;100.00
21236;BME280;10775;42.678;26.324;2023-02-28T06:25:55;99572.06;;;9.62;100.00
21236;BME280;10775;42.678;26.324;2023-02-28T06:28:24;99563.25;;;9.98;100.00
21236;BME280;10775;42.678;26.324;2023-02-28T06:30:50;99561.41;;;10.23;100.00
21236;BME280;10775;42.678;26.324;2023-02-28T06:33:15;99562.19;;;10.42;100.00
21236;BME280;10775;42.678;26.324;2023-02-28T06:35:44;99575.22;;;10.56;100.00
21236;BME280;10775;42.678;26.324;2023-02-28T06:38:11;99574.28;;;10.66;100.00
21236;BME280;10775;42.678;26.324;2023-02-28T06:40:37;99569.88;;;10.73;100.00
21236;BME280;10775;42.678;26.324;2023-02-28T06:43:03;99573.41;;;10.62;100.00
21236;BME280;10775;42.678;26.324;2023-02-28T06:45:28;99580.41;;;10.59;100.00
21236;BME280;10775;42.678;26.324;2023-02-28T06:47:54;99571.66;;;10.66;100.00
21236;BME280;10775;42.678;26.324;2023-02-28T06:50:20;99569.88;;;10.70;100.00
21236;BME280;10775;42.678;26.324;2023-02-28T06:52:46;99568.19;;;10.64;100.00
21236;BME280;10775;42.678;26.324;2023-02-28T06:55:11;99576.06;;;10.61;100.00
21236;BME280;10775;42.678;26.324;2023-02-28T06:57:37;99563.78;;;10.74;100.00
21236;BME280;10775;42.678;26.324;2023-02-28T07:00:09;99574.13;;;10.89;100.00
21236;BME280;10775;42.678;26.324;2023-02-28T07:02:35;99573.16;;;11.01;100.00
21236;BME280;10775;42.678;26.324;2023-02-28T07:05:01;99570.75;;;10.70;100.00
21236;BME280;10775;42.678;26.324;2023-02-28T07:07:27;99577.84;;;10.51;100.00
21236;BME280;10775;42.678;26.324;2023-02-28T07:09:52;99568.31;;;10.41;100.00
21236;BME280;10775;42.678;26.324;2023-02-28T07:12:18;99578.66;;;10.58;100.00
21236;BME280;10775;42.678;26.324;2023-02-28T07:14:43;99586.69;;;10.18;100.00
21236;BME280;10775;42.678;26.324;2023-02-28T07:17:10;99588.34;;;10.42;100.00
21236;BME280;10775;42.678;26.324;2023-02-28T07:19:37;99600.38;;;10.71;100.00
21236;BME280;10775;42.678;26.324;2023-02-28T07:22:03;99603.75;;;10.93;100.00
21236;BME280;10775;42.678;26.324;2023-02-28T07:24:29;99602.94;;;10.78;100.00
21236;BME280;10775;42.678;26.324;2023-02-28T07:26:55;99605.47;;;10.94;100.00
21236;BME280;10775;42.678;26.324;2023-02-28T07:29:21;99605.66;;;10.66;100.00
21236;BME280;10775;42.678;26.324;2023-02-28T07:31:46;99609.28;;;10.25;100.00
21236;BME280;10775;42.678;26.324;2023-02-28T07:34:13;99603.19;;;10.32;100.00
21236;BME280;10775;42.678;26.324;2023-02-28T07:36:39;99605.03;;;9.98;100.00
21236;BME280;10775;42.678;26.324;2023-02-28T07:39:04;99606.66;;;10.39;100.00
21236;BME280;10775;42.678;26.324;2023-02-28T07:41:30;99589.97;;;10.66;100.00
21236;BME280;10775;42.678;26.324;2023-02-28T07:43:58;99588.91;;;10.93;100.00
21236;BME280;10775;42.678;26.324;2023-02-28T07:46:25;99595.81;;;11.05;100.00
21236;BME280;10775;42.678;26.324;2023-02-28T07:48:51;99595.81;;;11.05;100.00
21236;BME280;10775;42.678;26.324;2023-02-28T07:51:16;99601.28;;;10.70;100.00
21236;BME280;10775;42.678;26.324;2023-02-28T07:53:42;99606.50;;;10.68;100.00
21236;BME280;10775;42.678;26.324;2023-02-28T07:56:08;99613.50;;;10.66;100.00
21236;BME280;10775;42.678;26.324;2023-02-28T07:58:34;99614.25;;;10.86;100.00
21236;BME280;10775;42.678;26.324;2023-02-28T08:01:07;99611.53;;;10.99;100.00
21236;BME280;10775;42.678;26.324;2023-02-28T08:03:33;99609.13;;;10.68;100.00
21236;BME280;10775;42.678;26.324;2023-02-28T08:05:58;99607.56;;;10.32;100.00
21236;BME280;10775;42.678;26.324;2023-02-28T08:08:24;99610.81;;;10.78;100.00
21236;BME280;10775;42.678;26.324;2023-02-28T08:10:53;99609.75;;;11.04;100.00
21236;BME280;10775;42.678;26.324;2023-02-28T08:13:18;99613.16;;;11.20;100.00
21236;BME280;10775;42.678;26.324;2023-02-28T08:15:44;99603.06;;;10.66;100.00
21236;BME280;10775;42.678;26.324;2023-02-28T08:18:11;99606.75;;;10.07;100.00
21236;BME280;10775;42.678;26.324;2023-02-28T08:20:36;99604.06;;;10.36;100.00
21236;BME280;10775;42.678;26.324;2023-02-28T08:23:01;99610.00;;;10.65;100.00
21236;BME280;10775;42.678;26.324;2023-02-28T08:25:27;99613.38;;;10.86;100.00
21236;BME280;10775;42.678;26.324;2023-02-28T08:27:52;99603.94;;;10.63;100.00
21236;BME280;10775;42.678;26.324;2023-02-28T08:30:18;99599.38;;;10.95;100.00
21236;BME280;10775;42.678;26.324;2023-02-28T08:32:44;99593.22;;;11.02;100.00
21236;BME280;10775;42.678;26.324;2023-02-28T08:35:09;99591.38;;;11.12;100.00
21236;BME280;10775;42.678;26.324;2023-02-28T08:37:35;99596.53;;;11.25;100.00
21236;BME280;10775;42.678;26.324;2023-02-28T08:40:01;99597.31;;;11.34;100.00
21236;BME280;10775;42.678;26.324;2023-02-28T08:42:26;99596.38;;;11.42;100.00
21236;BME280;10775;42.678;26.324;2023-02-28T08:44:52;99595.59;;;11.29;100.00
21236;BME280;10775;42.678;26.324;2023-02-28T08:47:18;99599.94;;;11.34;100.00
21236;BME280;10775;42.678;26.324;2023-02-28T08:49:44;99606.84;;;11.44;100.00
21236;BME280;10775;42.678;26.324;2023-02-28T08:52:09;99604.31;;;11.31;100.00
21236;BME280;10775;42.678;26.324;2023-02-28T08:54:35;99604.16;;;11.50;100.00
21236;BME280;10775;42.678;26.324;2023-02-28T08:57:00;99604.88;;;11.67;100.00
21236;BME280;10775;42.678;26.324;2023-02-28T08:59:26;99616.59;;;11.22;100.00
21236;BME280;10775;42.678;26.324;2023-02-28T09:01:51;99620.75;;;11.49;100.00
21236;BME280;10775;42.678;26.324;2023-02-28T09:04:17;99622.38;;;11.62;100.00
21236;BME280;10775;42.678;26.324;2023-02-28T09:06:42;99630.53;;;11.28;100.00
21236;BME280;10775;42.678;26.324;2023-02-28T09:09:09;99624.38;;;11.36;100.00
21236;BME280;10775;42.678;26.324;2023-02-28T09:11:35;99630.47;;;11.38;100.00
21236;BME280;10775;42.678;26.324;2023-02-28T09:14:01;99626.13;;;11.35;100.00
21236;BME280;10775;42.678;26.324;2023-02-28T09:16:29;99630.34;;;11.53;100.00
21236;BME280;10775;42.678;26.324;2023-02-28T09:18:55;99630.00;;;10.76;100.00
21236;BME280;10775;42.678;26.324;2023-02-28T09:21:21;99621.19;;;10.92;100.00
21236;BME280;10775;42.678;26.324;2023-02-28T09:23:48;99619.38;;;11.05;100.00
21236;BME280;10775;42.678;26.324;2023-02-28T09:26:19;99615.78;;;11.18;100.00
21236;BME280;10775;42.678;26.324;2023-02-28T09:28:45;99625.13;;;11.48;100.00
21236;BME280;10775;42.678;26.324;2023-02-28T09:31:13;99626.72;;;11.65;100.00
21236;BME280;10775;42.678;26.324;2023-02-28T09:33:39;99625.13;;;11.47;100.00
21236;BME280;10775;42.678;26.324;2023-02-28T09:36:05;99625.63;;;11.90;100.00
21236;BME280;10775;42.678;26.324;2023-02-28T09:38:31;99620.09;;;12.16;100.00
21236;BME280;10775;42.678;26.324;2023-02-28T09:41:00;99618.19;;;12.32;100.00
21236;BME280;10775;42.678;26.324;2023-02-28T09:43:30;99605.25;;;12.17;100.00
21236;BME280;10775;42.678;26.324;2023-02-28T09:48:41;99607.31;;;11.89;100.00
21236;BME280;10775;42.678;26.324;2023-02-28T09:54:01;99599.38;;;11.96;100.00
21236;BME280;10775;42.678;26.324;2023-02-28T09:56:38;99601.31;;;11.76;100.00
21236;BME280;10775;42.678;26.324;2023-02-28T10:01:50;99609.09;;;11.81;100.00
21236;BME280;10775;42.678;26.324;2023-02-28T10:06:54;99606.59;;;11.71;100.00
21236;BME280;10775;42.678;26.324;2023-02-28T10:09:26;99612.13;;;11.35;100.00
21236;BME280;10775;42.678;26.324;2023-02-28T10:12:00;99605.81;;;11.62;100.00
21236;BME280;10775;42.678;26.324;2023-02-28T10:14:29;99603.97;;;11.70;100.00
21236;BME280;10775;42.678;26.324;2023-02-28T10:19:35;99602.44;;;11.49;100.00
21236;BME280;10775;42.678;26.324;2023-02-28T10:22:11;99590.97;;;11.58;100.00
21236;BME280;10775;42.678;26.324;2023-02-28T10:24:42;99588.41;;;11.54;100.00
21236;BME280;10775;42.678;26.324;2023-02-28T10:27:22;99588.53;;;11.41;100.00
21236;BME280;10775;42.678;26.324;2023-02-28T10:29:50;99579.00;;;11.32;100.00
21236;BME280;10775;42.678;26.324;2023-02-28T10:32:35;99584.78;;;10.57;100.00
21236;BME280;10775;42.678;26.324;2023-02-28T10:37:37;99581.38;;;10.41;100.00
21236;BME280;10775;42.678;26.324;2023-02-28T10:40:06;99569.84;;;10.77;100.00
21236;BME280;10775;42.678;26.324;2023-02-28T10:42:33;99575.56;;;11.28;100.00
21236;BME280;10775;42.678;26.324;2023-02-28T10:47:33;99563.78;;;10.74;100.00
21236;BME280;10775;42.678;26.324;2023-02-28T10:49:59;99554.06;;;10.90;100.00
21236;BME280;10775;42.678;26.324;2023-02-28T10:52:37;99555.84;;;10.84;100.00
21236;BME280;10775;42.678;26.324;2023-02-28T10:55:24;99541.78;;;10.98;100.00
21236;BME280;10775;42.678;26.324;2023-02-28T10:57:53;99543.25;;;11.32;100.00
21236;BME280;10775;42.678;26.324;2023-02-28T11:00:24;99541.66;;;11.13;100.00
21236;BME280;10775;42.678;26.324;2023-02-28T11:02:51;99534.81;;;10.94;100.00
21236;BME280;10775;42.678;26.324;2023-02-28T11:05:33;99532.81;;;11.26;100.00
21236;BME280;10775;42.678;26.324;2023-02-28T11:08:05;99528.94;;;11.64;100.00
21236;BME280;10775;42.678;26.324;2023-02-28T11:10:32;99532.44;;;11.65;100.00
21236;BME280;10775;42.678;26.324;2023-02-28T11:13:01;99528.66;;;11.01;100.00
21236;BME280;10775;42.678;26.324;2023-02-28T11:15:34;99536.38;;;11.16;100.00
21236;BME280;10775;42.678;26.324;2023-02-28T11:18:47;99532.84;;;11.23;100.00
21236;BME280;10775;42.678;26.324;2023-02-28T11:20:50;99522.09;;;11.51;100.00
21236;BME280;10775;42.678;26.324;2023-02-28T11:23:16;99520.19;;;11.65;100.00
21236;BME280;10775;42.678;26.324;2023-02-28T11:25:56;99529.84;;;11.60;100.00
21236;BME280;10775;42.678;26.324;2023-02-28T11:28:34;99528.72;;;11.83;100.00
21236;BME280;10775;42.678;26.324;2023-02-28T11:33:53;99518.72;;;11.40;100.00
21236;BME280;10775;42.678;26.324;2023-02-28T11:36:29;99513.63;;;11.24;100.00
21236;BME280;10775;42.678;26.324;2023-02-28T11:38:59;99512.72;;;11.30;100.00
21236;BME280;10775;42.678;26.324;2023-02-28T11:44:24;99520.44;;;11.45;100.00
21236;BME280;10775;42.678;26.324;2023-02-28T11:47:05;99524.06;;;11.29;100.00
21236;BME280;10775;42.678;26.324;2023-02-28T11:52:40;99526.88;;;11.07;100.00
21236;BME280;10775;42.678;26.324;2023-02-28T11:55:34;99531.19;;;11.12;100.00
21236;BME280;10775;42.678;26.324;2023-02-28T12:00:44;99528.00;;;10.79;100.00
21236;BME280;10775;42.678;26.324;2023-02-28T12:03:39;99531.47;;;10.79;100.00
21236;BME280;10775;42.678;26.324;2023-02-28T12:06:20;99534.06;;;10.84;100.00
21236;BME280;10775;42.678;26.324;2023-02-28T12:11:52;99529.03;;;10.52;100.00
21236;BME280;10775;42.678;26.324;2023-02-28T12:14:29;99532.47;;;10.60;100.00
21236;BME280;10775;42.678;26.324;2023-02-28T12:28:15;99539.53;;;10.44;100.00
21236;BME280;10775;42.678;26.324;2023-02-28T12:30:51;99537.19;;;9.78;100.00
21236;BME280;10775;42.678;26.324;2023-02-28T12:33:21;99526.50;;;10.27;100.00
21236;BME280;10775;42.678;26.324;2023-02-28T12:35:55;99512.53;;;10.43;100.00
21236;BME280;10775;42.678;26.324;2023-02-28T12:38:45;99510.81;;;10.35;100.00
21236;BME280;10775;42.678;26.324;2023-02-28T12:41:26;99508.25;;;10.22;100.00
21236;BME280;10775;42.678;26.324;2023-02-28T12:44:05;99507.31;;;10.37;100.00
21236;BME280;10775;42.678;26.324;2023-02-28T12:46:36;99500.44;;;10.18;100.00
21236;BME280;10775;42.678;26.324;2023-02-28T12:49:19;99497.94;;;9.98;100.00
21236;BME280;10775;42.678;26.324;2023-02-28T12:51:47;99497.81;;;10.29;100.00
21236;BME280;10775;42.678;26.324;2023-02-28T12:54:35;99501.94;;;10.62;100.00
21236;BME280;10775;42.678;26.324;2023-02-28T13:10:05;99498.56;;;10.46;100.00
21236;BME280;10775;42.678;26.324;2023-02-28T13:12:33;99502.84;;;10.59;100.00
21236;BME280;10775;42.678;26.324;2023-02-28T13:15:23;99502.16;;;10.22;100.00
21236;BME280;10775;42.678;26.324;2023-02-28T13:17:53;99501.28;;;10.21;100.00
21236;BME280;10775;42.678;26.324;2023-02-28T13:20:23;99499.56;;;10.17;100.00
21236;BME280;10775;42.678;26.324;2023-02-28T13:22:52;99494.41;;;10.02;100.00
21236;BME280;10775;42.678;26.324;2023-02-28T13:28:00;99499.72;;;9.90;100.00
21236;BME280;10775;42.678;26.324;2023-02-28T13:35:45;99480.38;;;10.29;100.00
21236;BME280;10775;42.678;26.324;2023-02-28T13:38:23;99481.19;;;10.37;100.00
21236;BME280;10775;42.678;26.324;2023-02-28T13:40:49;99485.56;;;10.38;100.00
21236;BME280;10775;42.678;26.324;2023-02-28T13:43:17;99483.72;;;10.50;100.00
21236;BME280;10775;42.678;26.324;2023-02-28T13:46:10;99483.59;;;10.71;100.00
21236;BME280;10775;42.678;26.324;2023-02-28T13:48:37;99485.38;;;10.66;100.00
21236;BME280;10775;42.678;26.324;2023-02-28T13:51:38;99489.72;;;10.69;100.00
21236;BME280;10775;42.678;26.324;2023-02-28T14:02:40;99493.41;;;10.32;100.00
21236;BME280;10775;42.678;26.324;2023-02-28T14:05:17;99483.84;;;10.27;100.00
21236;BME280;10775;42.678;26.324;2023-02-28T14:07:50;99488.22;;;10.28;100.00
21236;BME280;10775;42.678;26.324;2023-02-28T14:10:46;99486.63;;;9.97;100.00
21236;BME280;10775;42.678;26.324;2023-02-28T14:16:01;99481.22;;;10.25;100.00
21236;BME280;10775;42.678;26.324;2023-02-28T14:18:38;99481.31;;;10.13;100.00
21236;BME280;10775;42.678;26.324;2023-02-28T14:24:13;99485.53;;;10.35;100.00
21236;BME280;10775;42.678;26.324;2023-02-28T14:34:58;99500.47;;;10.12;100.00
21236;BME280;10775;42.678;26.324;2023-02-28T14:37:36;99504.97;;;9.76;100.00
21236;BME280;10775;42.678;26.324;2023-02-28T14:40:03;99504.84;;;10.07;100.00
21236;BME280;10775;42.678;26.324;2023-02-28T14:42:31;99508.25;;;10.26;100.00
21236;BME280;10775;42.678;26.324;2023-02-28T14:44:57;99514.50;;;9.92;100.00
21236;BME280;10775;42.678;26.324;2023-02-28T14:47:27;99507.63;;;9.70;100.00
21236;BME280;10775;42.678;26.324;2023-02-28T14:49:54;99514.56;;;9.66;100.00
21236;BME280;10775;42.678;26.324;2023-02-28T14:52:28;99508.41;;;9.90;100.00
21236;BME280;10775;42.678;26.324;2023-02-28T14:55:00;99515.34;;;9.96;100.00
21236;BME280;10775;42.678;26.324;2023-02-28T14:57:30;99518.84;;;9.93;100.00
21236;BME280;10775;42.678;26.324;2023-02-28T15:00:09;99526.78;;;9.63;100.00